Time;durP1;ratioP1;P1;durP2;ratioP2;P2;SDS_P1;SDS_P2;PMS_P1;PMS_P2;Temp;Humidity;BMP_temperature;BMP_pressure;BME280_temperature;BME280_humidity;BME280_pressure;Samples;Min_cycle;Max_cycle;Signal;HPM_P1;HPM_P2
2023/06/22 00:01:09;;;;;;;7.85;4.78;;;;;;;18.89;100.00;101795.56;4982563;28;20688;-73
2023/06/22 00:03:34;;;;;;;7.63;4.85;;;;;;;18.87;100.00;101786.88;4990631;28;20041;-74
2023/06/22 00:05:59;;;;;;;8.77;4.68;;;;;;;18.82;100.00;101788.38;4990658;28;20378;-75
2023/06/22 00:08:25;;;;;;;8.30;5.50;;;;;;;18.88;100.00;101792.03;4990440;28;20100;-73
2023/06/22 00:10:50;;;;;;;11.45;5.60;;;;;;;18.83;100.00;101775.69;4990213;28;20034;-74
2023/06/22 00:13:17;;;;;;;9.73;5.78;;;;;;;18.76;99.97;101772.28;4990573;28;20030;-73
2023/06/22 00:15:43;;;;;;;11.38;6.13;;;;;;;18.77;99.26;101782.03;5002998;28;20478;-74
2023/06/22 00:18:10;;;;;;;7.45;5.15;;;;;;;18.78;100.00;101792.59;4993178;28;20022;-74
2023/06/22 00:20:38;;;;;;;7.75;5.40;;;;;;;18.79;100.00;101791.56;5008959;28;20029;-74
2023/06/22 00:23:08;;;;;;;8.82;4.78;;;;;;;18.73;100.00;101775.38;5008980;28;20026;-74
2023/06/22 00:25:39;;;;;;;9.15;5.18;;;;;;;18.71;100.00;101782.91;4977800;28;20076;-74
2023/06/22 00:28:05;;;;;;;8.85;5.43;;;;;;;18.61;100.00;101788.84;5004217;28;20041;-74
2023/06/22 00:30:32;;;;;;;10.38;6.30;;;;;;;18.58;100.00;101795.53;4991524;28;20034;-74
2023/06/22 00:32:58;;;;;;;9.75;5.82;;;;;;;18.53;100.00;101794.56;5008723;28;20049;-74
2023/06/22 00:35:28;;;;;;;10.57;5.75;;;;;;;18.54;100.00;101783.50;4989699;28;20080;-74
2023/06/22 00:38:00;;;;;;;10.82;6.35;;;;;;;18.48;100.00;101787.13;4989770;28;20486;-74
2023/06/22 00:40:25;;;;;;;8.90;5.78;;;;;;;18.39;100.00;101789.31;4992345;28;20061;-74
2023/06/22 00:42:51;;;;;;;10.90;5.35;;;;;;;18.40;100.00;101799.06;4989560;28;20096;-74
2023/06/22 00:45:16;;;;;;;9.18;5.15;;;;;;;18.37;100.00;101786.00;4972460;28;20382;-75
2023/06/22 00:47:43;;;;;;;12.13;6.20;;;;;;;18.33;100.00;101782.09;4989908;28;20441;-74
2023/06/22 00:50:09;;;;;;;12.80;6.38;;;;;;;18.31;100.00;101780.69;4989954;28;20478;-74
2023/06/22 00:52:35;;;;;;;11.75;6.38;;;;;;;18.18;100.00;101771.69;4983024;28;20038;-74
2023/06/22 00:55:02;;;;;;;12.30;6.57;;;;;;;18.27;100.00;101785.72;4980499;28;20045;-74
2023/06/22 00:57:27;;;;;;;11.18;6.55;;;;;;;18.22;100.00;101779.34;4989853;28;20050;-74
2023/06/22 00:59:53;;;;;;;11.70;7.35;;;;;;;18.20;100.00;101778.72;4989938;28;20038;-74
2023/06/22 01:02:19;;;;;;;12.70;7.22;;;;;;;18.20;100.00;101776.84;4989848;28;20037;-74
2023/06/22 01:04:44;;;;;;;10.95;6.05;;;;;;;18.16;100.00;101775.66;4989667;28;20378;-74
2023/06/22 01:07:41;;;;;;;11.40;6.57;;;;;;;18.20;100.00;101776.84;4975995;28;20112;-74
2023/06/22 01:10:13;;;;;;;13.52;6.93;;;;;;;18.14;100.00;101772.38;5008531;28;20034;-74
2023/06/22 01:12:43;;;;;;;11.20;7.07;;;;;;;18.12;100.00;101766.34;5008559;28;20033;-74
2023/06/22 01:15:21;;;;;;;11.05;7.20;;;;;;;18.06;100.00;101756.47;5008452;28;20470;-73
2023/06/22 01:17:49;;;;;;;13.57;6.57;;;;;;;18.06;100.00;101762.69;5008438;28;20440;-74
2023/06/22 01:20:16;;;;;;;12.65;7.85;;;;;;;18.05;100.00;101766.44;4990067;28;20034;-73
2023/06/22 01:23:03;;;;;;;14.40;7.65;;;;;;;18.03;100.00;101760.44;5008628;28;20025;-74
2023/06/22 01:25:46;;;;;;;13.73;7.70;;;;;;;18.03;100.00;101771.22;5008382;28;20476;-74
2023/06/22 01:28:19;;;;;;;13.18;7.57;;;;;;;17.98;100.00;101756.75;5008414;28;20060;-74
2023/06/22 01:30:47;;;;;;;10.63;6.35;;;;;;;18.01;100.00;101767.94;5008280;28;20040;-74
2023/06/22 01:33:14;;;;;;;14.40;7.50;;;;;;;17.98;100.00;101771.06;4990643;28;20026;-74
2023/06/22 01:35:40;;;;;;;12.70;7.78;;;;;;;17.96;100.00;101765.06;5008257;28;20405;-74
2023/06/22 01:38:06;;;;;;;12.13;7.55;;;;;;;17.89;100.00;101762.44;4990396;28;20601;-74
2023/06/22 01:40:33;;;;;;;10.93;6.18;;;;;;;17.90;100.00;101766.78;5008155;28;20449;-73
2023/06/22 01:43:00;;;;;;;11.70;7.25;;;;;;;17.93;100.00;101766.34;5011771;28;20025;-74
2023/06/22 01:45:27;;;;;;;13.07;7.72;;;;;;;17.94;100.00;101773.38;5011673;28;20052;-74
2023/06/22 01:47:53;;;;;;;13.65;7.70;;;;;;;17.94;100.00;101767.97;5011753;28;20072;-74
2023/06/22 01:50:18;;;;;;;15.68;8.32;;;;;;;17.99;100.00;101767.31;5011619;28;20057;-74
2023/06/22 01:52:43;;;;;;;15.82;9.15;;;;;;;18.01;100.00;101767.09;5001534;28;20592;-74
2023/06/22 01:55:09;;;;;;;13.60;7.70;;;;;;;17.96;100.00;101755.09;4992635;28;20375;-74
2023/06/22 01:57:35;;;;;;;15.05;8.85;;;;;;;17.96;100.00;101749.69;4992489;28;20430;-74
2023/06/22 02:00:04;;;;;;;15.68;8.35;;;;;;;17.91;100.00;101749.53;4992669;28;20034;-74
2023/06/22 02:02:36;;;;;;;15.38;8.50;;;;;;;17.92;100.00;101758.44;4975016;28;20466;-74
2023/06/22 02:05:12;;;;;;;16.38;9.77;;;;;;;17.86;100.00;101757.47;4992673;28;20160;-74
2023/06/22 02:07:57;;;;;;;15.68;9.63;;;;;;;17.86;100.00;101740.47;4992458;28;20038;-74
2023/06/22 02:10:24;;;;;;;19.20;9.93;;;;;;;17.87;100.00;101751.03;4992487;28;20116;-75
2023/06/22 02:12:51;;;;;;;16.33;8.73;;;;;;;17.87;100.00;101751.03;4992854;28;20116;-74
2023/06/22 02:15:17;;;;;;;17.88;8.73;;;;;;;17.84;100.00;101754.19;5001794;28;20493;-74
2023/06/22 02:17:44;;;;;;;15.70;9.07;;;;;;;17.85;100.00;101758.53;5011085;28;20045;-75
2023/06/22 02:20:14;;;;;;;17.15;9.48;;;;;;;17.90;100.00;101753.28;5011106;28;20040;-74
2023/06/22 02:22:39;;;;;;;15.30;9.60;;;;;;;17.88;100.00;101755.38;5011156;28;20030;-74
2023/06/22 02:25:05;;;;;;;18.60;9.43;;;;;;;17.87;100.00;101751.03;5009841;28;20077;-74
2023/06/22 02:27:30;;;;;;;16.10;9.43;;;;;;;17.87;100.00;101753.75;5008915;28;20030;-74
2023/06/22 02:29:56;;;;;;;15.93;10.00;;;;;;;17.87;100.00;101753.75;4991859;28;20077;-74
2023/06/22 02:32:22;;;;;;;15.75;9.23;;;;;;;17.84;100.00;101751.50;4992693;28;20026;-74
2023/06/22 02:34:47;;;;;;;15.23;8.88;;;;;;;17.87;100.00;101742.94;5003321;28;20037;-74
2023/06/22 02:37:16;;;;;;;15.65;8.60;;;;;;;17.83;100.00;101743.63;5006925;28;20032;-74
2023/06/22 02:39:42;;;;;;;17.95;9.60;;;;;;;17.93;100.00;101742.06;4998748;28;20397;-74
2023/06/22 02:42:07;;;;;;;17.25;10.07;;;;;;;17.87;100.00;101732.16;5010724;28;20033;-74
2023/06/22 02:44:33;;;;;;;20.95;10.27;;;;;;;17.87;100.00;101731.34;5010696;28;20106;-74
2023/06/22 02:46:58;;;;;;;16.90;10.57;;;;;;;17.78;100.00;101728.06;5010436;28;20078;-74
2023/06/22 02:49:24;;;;;;;18.08;10.05;;;;;;;17.80;100.00;101725.19;5011022;28;20053;-74
2023/06/22 02:51:49;;;;;;;16.40;9.75;;;;;;;17.81;100.00;101727.63;5010178;28;20124;-74
2023/06/22 02:54:16;;;;;;;19.23;10.77;;;;;;;17.79;100.00;101712.69;5009760;28;20030;-74
2023/06/22 02:56:43;;;;;;;18.83;9.43;;;;;;;17.77;100.00;101715.63;5010400;28;20017;-74
2023/06/22 02:59:10;;;;;;;17.80;9.85;;;;;;;17.79;100.00;101716.25;5010365;28;20084;-74
2023/06/22 03:01:39;;;;;;;14.82;8.65;;;;;;;17.71;100.00;101716.50;5010251;28;20042;-74
2023/06/22 03:04:09;;;;;;;16.35;10.02;;;;;;;17.65;100.00;101712.81;5010217;28;20540;-74
2023/06/22 03:06:35;;;;;;;17.42;9.98;;;;;;;17.66;100.00;101716.38;4993272;28;20565;-74
2023/06/22 03:09:03;;;;;;;16.60;8.93;;;;;;;17.66;100.00;101721.75;5010252;28;20473;-74
2023/06/22 03:11:30;;;;;;;18.13;10.35;;;;;;;17.54;100.00;101700.06;4991085;28;20040;-74
2023/06/22 03:13:56;;;;;;;20.90;11.20;;;;;;;17.56;100.00;101702.56;4990865;28;20363;-74
2023/06/22 03:16:21;;;;;;;15.13;10.32;;;;;;;17.57;100.00;101686.13;4991155;28;20041;-74
2023/06/22 03:18:46;;;;;;;16.55;9.88;;;;;;;17.55;100.00;101700.88;4991132;28;20049;-74
2023/06/22 03:21:12;;;;;;;18.33;11.27;;;;;;;17.55;100.00;101703.59;4991254;28;20031;-74
2023/06/22 03:23:37;;;;;;;21.52;11.52;;;;;;;17.50;100.00;101698.84;4991115;28;20069;-74
2023/06/22 03:26:04;;;;;;;17.50;10.07;;;;;;;17.49;100.00;101697.22;4991143;28;20015;-74
2023/06/22 03:28:29;;;;;;;18.20;9.82;;;;;;;17.48;100.00;101707.19;4991145;28;20045;-74
2023/06/22 03:30:56;;;;;;;17.40;9.40;;;;;;;17.43;100.00;101700.81;4991113;28;20606;-73
2023/06/22 03:33:22;;;;;;;16.77;9.98;;;;;;;17.46;100.00;101700.34;4991006;28;20432;-73
2023/06/22 03:35:47;;;;;;;16.95;9.85;;;;;;;17.39;100.00;101689.63;4990920;28;20026;-74
2023/06/22 03:38:13;;;;;;;16.48;9.02;;;;;;;17.44;100.00;101700.56;5003740;28;20137;-74
2023/06/22 03:40:38;;;;;;;15.25;8.85;;;;;;;17.43;100.00;101709.72;5009778;28;20037;-74
2023/06/22 03:43:03;;;;;;;16.95;9.55;;;;;;;17.37;100.00;101686.34;5009518;28;20084;-74
2023/06/22 03:45:29;;;;;;;18.13;10.18;;;;;;;17.42;100.00;101691.91;5003703;28;20030;-74
2023/06/22 03:47:54;;;;;;;17.40;9.45;;;;;;;17.38;100.00;101690.69;4990605;28;20030;-74
2023/06/22 03:50:20;;;;;;;19.52;10.10;;;;;;;17.40;100.00;101695.84;4992300;28;20030;-74
2023/06/22 03:52:46;;;;;;;16.50;10.13;;;;;;;17.36;100.00;101687.38;5009382;28;20034;-74
2023/06/22 03:55:11;;;;;;;16.85;9.57;;;;;;;17.27;100.00;101684.13;4961238;28;20034;-74
2023/06/22 03:57:36;;;;;;;17.20;9.30;;;;;;;17.31;100.00;101690.72;4990551;28;20034;-74
2023/06/22 04:00:05;;;;;;;16.65;9.02;;;;;;;17.29;100.00;101697.38;4978885;28;20121;-73
2023/06/22 04:02:30;;;;;;;17.98;9.50;;;;;;;17.27;100.00;101689.53;4991613;28;20433;-74
2023/06/22 04:04:56;;;;;;;16.50;9.18;;;;;;;17.19;100.00;101670.13;4974591;28;20088;-74
2023/06/22 04:07:21;;;;;;;17.20;10.15;;;;;;;17.33;100.00;101684.28;4990349;28;20151;-74
2023/06/22 04:09:46;;;;;;;16.90;9.30;;;;;;;17.30;100.00;101681.00;4972880;28;20565;-74
2023/06/22 04:12:12;;;;;;;16.63;10.23;;;;;;;17.37;100.00;101678.25;4973025;28;20030;-74
2023/06/22 04:14:37;;;;;;;15.82;8.98;;;;;;;17.41;100.00;101686.72;4990153;28;20069;-74
2023/06/22 04:17:03;;;;;;;16.13;9.27;;;;;;;17.43;100.00;101685.44;5003645;28;20055;-74
2023/06/22 04:19:28;;;;;;;16.40;9.60;;;;;;;17.47;100.00;101685.81;5008973;28;20061;-74
2023/06/22 04:21:53;;;;;;;17.15;9.27;;;;;;;17.44;100.00;101665.50;5009085;28;20034;-74
2023/06/22 04:24:19;;;;;;;18.25;9.65;;;;;;;17.58;100.00;101686.94;5008911;28;20482;-73
2023/06/22 04:26:45;;;;;;;15.27;9.52;;;;;;;17.63;100.00;101681.72;5009075;28;20069;-74
2023/06/22 04:29:11;;;;;;;18.35;9.88;;;;;;;17.67;100.00;101674.84;5008826;28;20033;-74
2023/06/22 04:31:36;;;;;;;18.10;9.90;;;;;;;17.74;100.00;101679.13;5008665;28;20025;-74
2023/06/22 04:34:06;;;;;;;16.00;8.98;;;;;;;17.81;100.00;101678.25;5009025;28;20069;-74
2023/06/22 04:36:41;;;;;;;16.75;8.93;;;;;;;17.80;100.00;101672.03;5008679;28;20030;-73
2023/06/22 04:39:11;;;;;;;19.67;9.73;;;;;;;17.78;100.00;101668.69;5008776;28;20134;-74
2023/06/22 04:41:43;;;;;;;19.58;9.88;;;;;;;17.93;100.00;101676.44;5008697;28;20034;-74
2023/06/22 04:44:09;;;;;;;17.42;9.02;;;;;;;18.13;100.00;101682.44;5008914;28;20030;-74
2023/06/22 04:46:37;;;;;;;17.85;9.88;;;;;;;18.24;100.00;101680.03;5000640;28;20035;-73
2023/06/22 04:49:12;;;;;;;19.23;10.05;;;;;;;18.27;100.00;101687.69;4989909;28;20022;-74
2023/06/22 04:51:41;;;;;;;19.60;11.10;;;;;;;18.21;100.00;101683.16;5003266;28;20669;-74
2023/06/22 04:54:07;;;;;;;20.10;10.35;;;;;;;18.29;100.00;101690.97;5008511;28;20048;-74
2023/06/22 04:56:33;;;;;;;18.13;10.25;;;;;;;18.27;100.00;101687.69;5008424;28;20045;-74
2023/06/22 04:58:59;;;;;;;17.83;10.23;;;;;;;18.34;100.00;101691.94;5008512;28;20022;-74
2023/06/22 05:01:25;;;;;;;19.98;10.82;;;;;;;18.40;100.00;101691.03;5008625;28;20041;-74
2023/06/22 05:03:51;;;;;;;19.30;13.32;;;;;;;18.45;100.00;101697.63;4997558;28;20030;-74
2023/06/22 05:06:17;;;;;;;22.23;12.00;;;;;;;18.45;100.00;101684.94;4993950;28;20366;-74
2023/06/22 05:08:43;;;;;;;20.80;12.98;;;;;;;18.61;100.00;101678.88;4992896;28;20066;-74
2023/06/22 05:11:09;;;;;;;26.60;13.07;;;;;;;18.80;100.00;101684.25;4989826;28;20135;-74
2023/06/22 05:13:34;;;;;;;22.17;12.60;;;;;;;18.80;100.00;101673.44;4989870;28;20034;-74
2023/06/22 05:16:02;;;;;;;22.75;12.90;;;;;;;18.88;100.00;101677.69;4990647;28;20362;-74
2023/06/22 05:18:29;;;;;;;20.23;12.23;;;;;;;18.96;100.00;101683.59;4993362;28;20442;-74
2023/06/22 05:20:55;;;;;;;20.42;12.82;;;;;;;19.03;100.00;101688.91;4993293;28;20050;-74
2023/06/22 05:23:20;;;;;;;22.58;13.57;;;;;;;19.09;100.00;101693.38;4993415;28;20108;-73
2023/06/22 05:25:46;;;;;;;21.05;12.30;;;;;;;19.21;100.00;101690.69;4993308;28;20397;-74
2023/06/22 05:28:12;;;;;;;21.65;12.57;;;;;;;19.26;100.00;101683.53;4993242;28;20038;-74
2023/06/22 05:30:37;;;;;;;22.50;13.60;;;;;;;19.34;100.00;101695.06;4975760;28;20046;-74
2023/06/22 05:33:03;;;;;;;22.88;12.93;;;;;;;19.30;100.00;101681.16;4993276;28;20026;-73
2023/06/22 05:35:29;;;;;;;22.35;12.75;;;;;;;19.38;100.00;101691.63;4975407;28;20037;-74
2023/06/22 05:37:55;;;;;;;19.00;12.43;;;;;;;19.45;100.00;101703.16;4994735;28;20092;-74
2023/06/22 05:40:20;;;;;;;20.63;11.55;;;;;;;19.48;100.00;101697.28;4993240;28;20065;-74
2023/06/22 05:42:46;;;;;;;18.05;12.27;;;;;;;19.45;100.00;101691.53;5003421;28;20070;-74
2023/06/22 05:45:11;;;;;;;20.30;12.98;;;;;;;19.46;100.00;101693.97;4992990;28;20038;-74
2023/06/22 05:47:36;;;;;;;20.50;11.70;;;;;;;19.48;100.00;101689.16;4975243;28;20061;-74
2023/06/22 05:50:06;;;;;;;20.48;11.95;;;;;;;19.48;100.00;101691.88;4992999;28;20058;-74
2023/06/22 05:52:31;;;;;;;20.27;13.13;;;;;;;19.50;100.00;101686.22;4975293;28;20060;-75
2023/06/22 05:54:57;;;;;;;23.65;13.48;;;;;;;19.52;100.00;101677.84;4992805;28;20062;-74
2023/06/22 05:57:22;;;;;;;23.13;14.85;;;;;;;19.55;100.00;101680.94;4992807;28;20031;-74
2023/06/22 05:59:47;;;;;;;21.75;14.60;;;;;;;19.58;100.00;101682.34;4992776;28;20033;-75
2023/06/22 06:02:13;;;;;;;19.88;12.10;;;;;;;19.61;100.00;101682.69;4992825;28;20394;-73
2023/06/22 06:04:38;;;;;;;23.77;14.48;;;;;;;19.64;100.00;101674.09;4992627;28;20386;-74
2023/06/22 06:07:03;;;;;;;22.15;14.73;;;;;;;19.64;100.00;101674.09;4975158;28;20758;-74
2023/06/22 06:09:29;;;;;;;22.10;13.60;;;;;;;19.65;100.00;101677.66;4992713;28;20034;-74
2023/06/22 06:11:54;;;;;;;23.77;14.90;;;;;;;19.59;100.00;101673.97;4992566;28;20104;-74
2023/06/22 06:14:20;;;;;;;22.48;14.48;;;;;;;19.58;100.00;101664.22;4992326;28;20038;-74
2023/06/22 06:16:45;;;;;;;23.58;13.95;;;;;;;19.65;100.00;101686.59;4992238;28;20161;-73
2023/06/22 06:19:10;;;;;;;30.17;15.40;;;;;;;19.70;100.00;101675.06;4992663;28;20149;-74
2023/06/22 06:21:36;;;;;;;21.20;14.98;;;;;;;19.74;100.00;101675.41;4974579;28;20081;-74
2023/06/22 06:24:01;;;;;;;22.70;14.40;;;;;;;19.79;100.00;101668.22;4992203;28;20081;-74
2023/06/22 06:26:32;;;;;;;22.95;15.07;;;;;;;19.88;100.00;101677.59;4992112;28;20022;-73
2023/06/22 06:28:58;;;;;;;23.30;14.38;;;;;;;19.98;100.00;101685.13;4992213;28;21004;-72
2023/06/22 06:31:24;;;;;;;22.67;15.50;;;;;;;20.02;100.00;101675.47;4992348;28;20038;-73
2023/06/22 06:33:49;;;;;;;21.70;15.15;;;;;;;20.05;100.00;101680.41;4992241;28;20034;-73
2023/06/22 06:36:16;;;;;;;23.00;16.35;;;;;;;20.05;100.00;101675.00;4991958;28;20081;-72
2023/06/22 06:38:41;;;;;;;21.63;14.68;;;;;;;20.14;100.00;101673.53;4991440;28;20104;-72
2023/06/22 06:41:07;;;;;;;25.90;18.40;;;;;;;20.24;100.00;101682.94;4992174;28;20050;-73
2023/06/22 06:43:32;;;;;;;27.48;16.30;;;;;;;20.28;100.00;101676.00;4991990;28;20482;-72
2023/06/22 06:45:57;;;;;;;21.88;15.70;;;;;;;20.38;100.00;101676.16;4998182;28;20060;-71
2023/06/22 06:48:23;;;;;;;24.15;15.65;;;;;;;20.45;100.00;101668.72;5001264;28;20045;-73
2023/06/22 06:50:48;;;;;;;24.83;18.50;;;;;;;20.55;100.00;101670.84;4974260;28;20038;-73
2023/06/22 06:53:14;;;;;;;22.42;16.00;;;;;;;20.52;100.00;101663.97;4991300;28;20085;-72
2023/06/22 06:55:39;;;;;;;25.23;16.33;;;;;;;20.50;100.00;101674.25;4991565;28;20081;-73
2023/06/22 06:58:07;;;;;;;21.30;15.63;;;;;;;20.50;100.00;101668.81;4991613;28;20046;-73
2023/06/22 07:00:33;;;;;;;21.95;15.50;;;;;;;20.50;100.00;101666.09;5010341;28;20032;-73
2023/06/22 07:02:58;;;;;;;24.30;17.38;;;;;;;20.49;100.00;101660.94;5010264;28;20382;-72
2023/06/22 07:05:23;;;;;;;24.23;17.33;;;;;;;20.54;100.00;101667.31;4976256;28;20042;-73
2023/06/22 07:07:49;;;;;;;22.05;15.48;;;;;;;20.57;100.00;101669.53;5010311;28;20042;-73
2023/06/22 07:10:15;;;;;;;22.85;15.27;;;;;;;20.58;100.00;101667.63;4993905;28;20114;-73
2023/06/22 07:12:40;;;;;;;22.05;15.93;;;;;;;20.62;100.00;101667.97;4991564;28;20041;-73
2023/06/22 07:15:08;;;;;;;25.63;15.45;;;;;;;20.63;99.88;101664.19;4991344;28;20034;-72
2023/06/22 07:17:34;;;;;;;27.40;16.02;;;;;;;20.65;99.11;101654.75;4990940;28;20034;-73
2023/06/22 07:20:01;;;;;;;23.88;15.52;;;;;;;20.71;100.00;101659.19;4991309;28;20034;-73
2023/06/22 07:22:26;;;;;;;21.80;14.90;;;;;;;20.80;100.00;101659.59;4991445;28;20038;-72
2023/06/22 07:24:51;;;;;;;21.42;14.45;;;;;;;20.82;99.94;101651.22;4991359;28;20032;-73
2023/06/22 07:27:21;;;;;;;23.10;15.57;;;;;;;20.78;99.32;101637.34;4991204;28;20062;-73
2023/06/22 07:29:46;;;;;;;24.48;15.52;;;;;;;20.88;98.61;101653.81;4991141;28;20065;-73
2023/06/22 07:32:12;;;;;;;22.15;15.52;;;;;;;20.88;98.35;101648.38;4990909;28;20049;-73
2023/06/22 07:34:37;;;;;;;22.35;14.65;;;;;;;20.93;97.91;101650.31;4990600;28;20026;-73
2023/06/22 07:37:04;;;;;;;21.88;14.82;;;;;;;20.96;98.45;101650.69;4995287;28;20029;-73
2023/06/22 07:39:30;;;;;;;22.95;15.48;;;;;;;20.98;97.55;101653.13;5008838;28;20535;-73
2023/06/22 07:41:55;;;;;;;22.45;15.50;;;;;;;21.07;98.57;101653.56;5009503;28;20042;-73
2023/06/22 07:44:21;;;;;;;22.13;14.85;;;;;;;21.13;96.52;101647.94;5002209;28;20466;-74
2023/06/22 07:46:46;;;;;;;22.00;15.25;;;;;;;21.14;96.38;101649.59;4991200;28;20022;-73
2023/06/22 07:49:12;;;;;;;24.70;15.05;;;;;;;21.17;96.39;101649.09;4973265;28;20138;-73
2023/06/22 07:51:37;;;;;;;22.05;14.02;;;;;;;21.16;94.71;101638.50;4990702;28;20385;-73
2023/06/22 07:54:03;;;;;;;22.05;14.20;;;;;;;21.27;96.17;101625.91;4990195;28;20034;-73
2023/06/22 07:56:28;;;;;;;23.20;14.55;;;;;;;21.36;94.86;101622.50;4972975;28;20109;-73
2023/06/22 07:58:53;;;;;;;20.95;14.20;;;;;;;21.45;95.89;101620.22;4990605;28;20041;-74
2023/06/22 08:01:22;;;;;;;22.20;14.25;;;;;;;21.63;92.12;101608.25;4972962;28;20180;-73
2023/06/22 08:03:50;;;;;;;20.10;13.45;;;;;;;21.80;87.82;101616.34;4990396;28;20422;-73
2023/06/22 08:06:16;;;;;;;19.77;12.73;;;;;;;21.98;87.94;101610.56;4990252;28;20457;-73
2023/06/22 08:08:42;;;;;;;21.70;13.77;;;;;;;22.06;86.97;101610.13;4999082;28;20112;-71
2023/06/22 08:11:08;;;;;;;20.02;13.23;;;;;;;22.20;88.53;101602.41;4989177;28;20022;-72
2023/06/22 08:13:33;;;;;;;20.85;13.80;;;;;;;22.29;89.13;101606.28;4969785;28;20430;-73
2023/06/22 08:15:58;;;;;;;18.63;13.43;;;;;;;22.36;86.92;101584.34;4989666;28;20045;-72
2023/06/22 08:18:24;;;;;;;18.15;12.70;;;;;;;22.33;85.32;101582.16;4971652;28;20070;-72
2023/06/22 08:20:49;;;;;;;21.05;13.38;;;;;;;22.34;88.73;101581.06;4990164;28;20034;-73
2023/06/22 08:23:15;;;;;;;20.52;12.57;;;;;;;22.32;82.86;101585.94;4989320;28;20057;-74
2023/06/22 08:25:40;;;;;;;21.63;12.73;;;;;;;22.28;85.45;101579.38;4990085;28;20427;-73
2023/06/22 08:28:06;;;;;;;20.33;13.80;;;;;;;22.25;86.04;101578.00;4989188;28;20496;-73
2023/06/22 08:30:31;;;;;;;20.50;12.48;;;;;;;22.25;84.17;101578.00;4990135;28;20482;-73
2023/06/22 08:32:56;;;;;;;19.65;13.38;;;;;;;22.17;84.74;101564.84;4990015;28;20474;-74
2023/06/22 08:35:23;;;;;;;21.63;12.63;;;;;;;22.20;84.78;101572.53;4990211;28;20042;-73
2023/06/22 08:37:52;;;;;;;17.80;12.35;;;;;;;22.20;82.82;101569.00;4995099;28;20030;-73
2023/06/22 08:40:19;;;;;;;21.58;13.95;;;;;;;22.30;82.94;101578.06;5008413;28;20096;-74
2023/06/22 08:42:45;;;;;;;19.25;12.15;;;;;;;22.35;83.18;101571.00;5009082;28;20029;-73
2023/06/22 08:45:10;;;;;;;20.00;12.40;;;;;;;22.43;84.64;101576.00;4999012;28;20041;-72
2023/06/22 08:47:36;;;;;;;18.02;11.23;;;;;;;22.44;79.81;101580.34;4989874;28;20391;-73
2023/06/22 08:50:04;;;;;;;19.42;12.07;;;;;;;22.46;80.31;101572.75;4990001;28;20028;-73
2023/06/22 08:52:29;;;;;;;20.40;12.18;;;;;;;22.47;80.62;101574.38;4993430;28;20053;-73
2023/06/22 08:54:55;;;;;;;18.00;11.05;;;;;;;22.46;81.34;101564.59;4994016;28;20022;-73
2023/06/22 08:57:21;;;;;;;18.67;11.95;;;;;;;22.46;79.56;101561.88;4993947;28;20038;-73
2023/06/22 08:59:46;;;;;;;17.33;11.15;;;;;;;22.42;80.86;101549.88;4976468;28;20057;-73
2023/06/22 09:02:12;;;;;;;16.23;10.45;;;;;;;22.45;77.28;101557.50;4993860;28;20066;-74
2023/06/22 09:04:37;;;;;;;17.80;10.85;;;;;;;22.45;79.25;101561.06;4977229;28;20029;-65
2023/06/22 09:07:03;;;;;;;19.42;11.30;;;;;;;22.46;79.89;101557.25;5001807;28;20026;-73
2023/06/22 09:09:28;;;;;;;16.85;10.93;;;;;;;22.45;77.37;101557.50;4974835;28;20104;-73
2023/06/22 09:11:54;;;;;;;17.65;11.88;;;;;;;22.43;78.99;101555.06;4992479;28;20034;-73
2023/06/22 09:14:19;;;;;;;16.25;9.70;;;;;;;22.39;79.50;101544.97;4993024;28;20500;-73
2023/06/22 09:16:45;;;;;;;19.60;10.52;;;;;;;22.41;77.25;101553.69;4993307;28;20042;-73
2023/06/22 09:19:10;;;;;;;15.27;9.75;;;;;;;22.41;77.83;101556.41;4993235;28;20328;-73
2023/06/22 09:21:36;;;;;;;17.65;11.57;;;;;;;22.39;78.82;101556.66;4993481;28;20038;-73
2023/06/22 09:24:02;;;;;;;16.13;9.63;;;;;;;22.38;79.06;101555.03;4993386;28;20050;-73
2023/06/22 09:26:27;;;;;;;16.95;10.25;;;;;;;22.31;78.79;101547.06;4993406;28;20109;-73
2023/06/22 09:28:53;;;;;;;16.70;10.52;;;;;;;22.36;78.74;101553.63;4993413;28;20129;-73
2023/06/22 09:31:25;;;;;;;16.73;10.88;;;;;;;22.37;77.91;101545.22;4993354;28;20076;-73
2023/06/22 09:33:54;;;;;;;17.25;10.45;;;;;;;22.39;77.13;101547.69;4993196;28;20034;-73
2023/06/22 09:36:20;;;;;;;15.43;9.95;;;;;;;22.39;78.18;101550.41;4996739;28;20037;-72
2023/06/22 09:38:46;;;;;;;18.17;11.48;;;;;;;22.41;77.32;101540.09;4994473;28;20029;-73
2023/06/22 09:41:11;;;;;;;15.90;10.98;;;;;;;22.40;78.40;101543.88;5006527;28;20037;-73
2023/06/22 09:43:36;;;;;;;18.20;10.85;;;;;;;22.39;78.23;101544.97;4993180;28;20548;-73
2023/06/22 09:46:02;;;;;;;17.90;11.50;;;;;;;22.36;79.18;101545.50;4993028;28;20534;-72
2023/06/22 09:48:29;;;;;;;18.48;12.05;;;;;;;22.32;79.29;101542.44;4993000;28;20421;-73
2023/06/22 09:50:55;;;;;;;17.65;11.27;;;;;;;22.31;78.58;101555.22;4992973;28;20038;-72
2023/06/22 09:53:20;;;;;;;20.35;10.18;;;;;;;22.30;78.92;101548.16;4992857;28;20080;-72
2023/06/22 09:55:45;;;;;;;18.73;10.90;;;;;;;22.25;80.63;101539.97;4993063;28;20042;-73
2023/06/22 09:58:11;;;;;;;17.23;10.05;;;;;;;22.27;78.57;101540.53;4992756;28;20036;-73
2023/06/22 10:00:36;;;;;;;16.33;10.15;;;;;;;22.26;78.66;101535.34;4975254;28;20065;-74
2023/06/22 10:03:01;;;;;;;17.10;9.77;;;;;;;22.28;78.63;101535.91;4992147;28;20044;-73
2023/06/22 10:05:27;;;;;;;17.60;10.90;;;;;;;22.28;77.99;101528.56;4992643;28;20425;-73
2023/06/22 10:07:52;;;;;;;18.85;10.68;;;;;;;22.28;79.50;101533.19;4992602;28;20045;-73
2023/06/22 10:10:18;;;;;;;17.98;10.88;;;;;;;22.28;81.01;101534.00;4992745;28;20073;-73
2023/06/22 10:12:47;;;;;;;16.27;10.13;;;;;;;22.30;79.29;101539.19;4992664;28;20559;-73
2023/06/22 10:15:13;;;;;;;16.77;10.27;;;;;;;22.30;78.19;101529.13;4992435;28;20389;-73
2023/06/22 10:17:39;;;;;;;15.68;9.80;;;;;;;22.31;77.04;101519.06;4992208;28;20041;-72
2023/06/22 10:20:13;;;;;;;19.63;11.32;;;;;;;22.41;77.16;101530.03;4974906;28;20034;-73
2023/06/22 10:22:40;;;;;;;16.98;10.68;;;;;;;22.46;77.88;101523.81;4999538;28;20038;-73
2023/06/22 10:25:06;;;;;;;17.13;10.20;;;;;;;22.46;78.16;101513.78;5011112;28;20041;-72
2023/06/22 10:27:32;;;;;;;15.10;9.90;;;;;;;22.52;79.29;101515.44;5010937;28;20026;-72
2023/06/22 10:29:57;;;;;;;17.35;10.25;;;;;;;22.54;78.69;101516.00;4974777;28;20036;-73
2023/06/22 10:32:23;;;;;;;16.15;10.73;;;;;;;22.53;78.54;101514.38;4992194;28;20034;-72
2023/06/22 10:34:48;;;;;;;15.63;9.55;;;;;;;22.46;78.10;101511.06;4992154;28;20030;-74
2023/06/22 10:37:13;;;;;;;13.63;9.02;;;;;;;22.53;78.66;101508.94;4991906;28;20061;-72
2023/06/22 10:39:39;;;;;;;16.90;10.68;;;;;;;22.53;77.58;101513.53;4991705;28;20094;-73
2023/06/22 10:42:04;;;;;;;15.02;10.45;;;;;;;22.52;78.49;101518.16;4974448;28;20038;-72
2023/06/22 10:44:30;;;;;;;14.68;10.02;;;;;;;22.49;77.81;101515.97;4991939;28;20489;-73
2023/06/22 10:46:55;;;;;;;15.65;10.05;;;;;;;22.47;80.14;101529.00;4991924;28;20026;-73
2023/06/22 10:49:20;;;;;;;19.67;9.70;;;;;;;22.44;79.53;101529.50;4992014;28;20041;-73
2023/06/22 10:51:45;;;;;;;17.20;9.95;;;;;;;22.44;79.28;101534.94;4991817;28;20102;-73
2023/06/22 10:54:13;;;;;;;18.83;11.27;;;;;;;22.40;79.62;101535.72;4991775;28;20030;-73
2023/06/22 10:56:39;;;;;;;17.90;10.60;;;;;;;22.36;79.76;101527.28;4974399;28;20084;-73
2023/06/22 10:59:04;;;;;;;17.48;10.65;;;;;;;22.33;81.75;101533.22;4991704;28;20027;-73
2023/06/22 11:01:31;;;;;;;17.85;10.25;;;;;;;22.30;81.75;101534.56;4991737;28;20050;-74
2023/06/22 11:03:56;;;;;;;18.02;11.50;;;;;;;22.31;82.35;101543.53;4991756;28;20038;-73